createdAt,value
2018-05-27T00:01:15.845Z,8.37
2018-05-27T00:03:42.055Z,7.93
2018-05-27T00:06:09.014Z,8.37
2018-05-27T00:08:35.218Z,9.00
2018-05-27T00:11:02.174Z,8.20
2018-05-27T00:13:29.119Z,8.83
2018-05-27T00:15:56.107Z,8.43
2018-05-27T00:18:22.290Z,8.27
2018-05-27T00:20:49.242Z,8.40
2018-05-27T00:23:15.457Z,8.97
2018-05-27T00:25:42.418Z,9.50
2018-05-27T00:28:08.593Z,8.60
2018-05-27T00:30:34.826Z,9.17
2018-05-27T00:33:01.017Z,8.70
2018-05-27T00:35:27.201Z,8.30
2018-05-27T00:37:53.421Z,8.90
2018-05-27T00:40:19.622Z,8.40
2018-05-27T00:42:45.866Z,8.33
2018-05-27T00:45:12.084Z,9.33
2018-05-27T00:47:38.290Z,9.37
2018-05-27T00:50:04.505Z,9.33
2018-05-27T00:52:30.761Z,9.00
2018-05-27T00:54:56.979Z,10.13
2018-05-27T00:57:23.185Z,9.30
2018-05-27T00:59:49.413Z,10.07
2018-05-27T01:02:15.615Z,9.50
2018-05-27T01:04:42.590Z,9.27
2018-05-27T01:07:08.788Z,9.23
2018-05-27T01:09:35.733Z,8.57
2018-05-27T01:12:02.708Z,9.13
2018-05-27T01:14:28.911Z,10.00
2018-05-27T01:16:55.123Z,9.30
2018-05-27T01:19:22.090Z,9.10
2018-05-27T01:21:48.291Z,8.97
2018-05-27T01:24:15.249Z,9.63
2018-05-27T01:26:42.360Z,8.87
2018-05-27T01:29:08.574Z,10.07
2018-05-27T01:31:34.811Z,9.87
2018-05-27T01:34:01.072Z,10.10
2018-05-27T01:36:28.055Z,10.17
2018-05-27T01:38:54.252Z,10.83
2018-05-27T01:41:20.478Z,10.77
2018-05-27T01:43:47.601Z,10.63
2018-05-27T01:46:13.828Z,11.07
2018-05-27T01:48:40.044Z,10.80
2018-05-27T01:51:06.260Z,10.80
2018-05-27T01:53:32.503Z,10.13
2018-05-27T01:55:58.709Z,11.00
2018-05-27T01:58:24.941Z,9.80
2018-05-27T02:00:51.138Z,9.57
2018-05-27T02:03:17.370Z,10.30
2018-05-27T02:05:43.573Z,9.97
2018-05-27T02:08:10.501Z,10.47
2018-05-27T02:10:37.505Z,10.67
2018-05-27T02:13:03.810Z,11.53
2018-05-27T02:15:30.034Z,9.60
2018-05-27T02:17:56.226Z,11.17
2018-05-27T02:20:22.423Z,10.33
2018-05-27T02:22:48.618Z,10.73
2018-05-27T02:25:14.842Z,9.63
2018-05-27T02:27:41.041Z,10.97
2018-05-27T02:30:07.322Z,10.67
2018-05-27T02:32:33.553Z,11.03
2018-05-27T02:34:59.802Z,11.13
2018-05-27T02:37:26.006Z,11.17
2018-05-27T02:39:52.216Z,11.97
2018-05-27T02:42:18.451Z,10.90
2018-05-27T02:44:44.665Z,10.33
2018-05-27T02:47:10.948Z,10.40
2018-05-27T02:49:37.909Z,11.50
2018-05-27T02:52:04.930Z,11.07
2018-05-27T02:54:31.187Z,10.83
2018-05-27T02:56:58.152Z,11.20
2018-05-27T02:59:24.382Z,10.17
2018-05-27T03:01:51.304Z,11.30
2018-05-27T03:04:18.258Z,11.43
2018-05-27T03:06:45.194Z,10.63
2018-05-27T03:09:12.177Z,10.43
2018-05-27T03:11:38.391Z,11.73
2018-05-27T03:14:04.635Z,11.40
2018-05-27T03:16:30.863Z,11.50
2018-05-27T03:18:57.088Z,11.43
2018-05-27T03:21:24.178Z,11.70
2018-05-27T03:23:50.402Z,11.40
2018-05-27T03:26:16.593Z,11.10
2018-05-27T03:28:42.865Z,10.80
2018-05-27T03:31:09.097Z,11.83
2018-05-27T03:33:35.363Z,11.90
2018-05-27T03:36:01.563Z,11.50
2018-05-27T03:38:28.522Z,12.33
2018-05-27T03:40:55.455Z,11.50
2018-05-27T03:43:22.430Z,13.03
2018-05-27T03:45:48.624Z,12.77
2018-05-27T03:48:15.608Z,13.40
2018-05-27T03:50:41.802Z,11.80
2018-05-27T03:53:08.748Z,11.77
2018-05-27T03:55:35.725Z,12.60
2018-05-27T03:58:01.926Z,12.20
2018-05-27T04:00:28.894Z,12.03
2018-05-27T04:02:55.149Z,12.33
2018-05-27T04:05:33.584Z,12.47
2018-05-27T04:08:12.702Z,12.57
2018-05-27T04:10:38.917Z,12.37
2018-05-27T04:13:05.126Z,12.20
2018-05-27T04:15:31.336Z,13.10
2018-05-27T04:17:57.603Z,12.13
2018-05-27T04:20:23.822Z,11.90
2018-05-27T04:22:50.042Z,12.07
2018-05-27T04:25:16.291Z,12.97
2018-05-27T04:27:42.514Z,12.40
2018-05-27T04:30:08.721Z,13.77
2018-05-27T04:32:34.950Z,12.83
2018-05-27T04:35:01.178Z,13.70
2018-05-27T04:37:27.398Z,13.43
2018-05-27T04:39:53.589Z,13.53
2018-05-27T04:42:20.542Z,13.57
2018-05-27T04:44:46.740Z,13.30
2018-05-27T04:47:12.951Z,13.00
2018-05-27T04:49:39.141Z,12.90
2018-05-27T04:52:05.386Z,14.33
2018-05-27T04:54:31.614Z,13.90
2018-05-27T04:56:57.843Z,13.27
2018-05-27T04:59:24.037Z,13.50
2018-05-27T05:01:50.244Z,13.70
2018-05-27T05:04:17.240Z,14.20
2018-05-27T05:06:43.443Z,12.97
2018-05-27T05:09:09.681Z,13.33
2018-05-27T05:11:35.902Z,12.40
2018-05-27T05:14:02.162Z,12.83
2018-05-27T05:16:28.387Z,13.03
2018-05-27T05:18:54.598Z,13.43
2018-05-27T05:21:20.833Z,12.70
2018-05-27T05:23:47.024Z,13.43
2018-05-27T05:26:13.990Z,12.73
2018-05-27T05:28:40.221Z,13.87
2018-05-27T05:31:06.446Z,13.87
2018-05-27T05:33:32.667Z,12.90
2018-05-27T05:35:58.900Z,13.00
2018-05-27T05:38:25.132Z,13.07
2018-05-27T05:40:51.671Z,12.90
2018-05-27T05:43:18.035Z,13.07
2018-05-27T05:45:44.410Z,13.30
2018-05-27T05:48:10.647Z,12.87
2018-05-27T05:50:36.855Z,12.80
2018-05-27T05:53:03.928Z,12.17
2018-05-27T05:55:30.190Z,11.70
2018-05-27T05:57:56.394Z,12.47
2018-05-27T06:00:22.631Z,12.10
2018-05-27T06:02:48.849Z,11.87
2018-05-27T06:05:15.085Z,12.13
2018-05-27T06:07:41.277Z,12.00
2018-05-27T06:10:07.497Z,12.40
2018-05-27T06:12:34.500Z,12.40
2018-05-27T06:15:00.706Z,11.87
2018-05-27T06:17:26.960Z,11.87
2018-05-27T06:19:53.947Z,12.40
2018-05-27T06:22:20.154Z,10.90
2018-05-27T06:24:46.385Z,12.33
2018-05-27T06:27:13.354Z,12.60
2018-05-27T06:29:39.566Z,11.27
2018-05-27T06:32:06.605Z,11.67
2018-05-27T06:34:32.742Z,10.13
2018-05-27T06:36:59.735Z,10.93
2018-05-27T06:39:25.960Z,10.33
2018-05-27T06:41:52.200Z,10.30
2018-05-27T06:44:18.399Z,9.27
2018-05-27T06:46:44.630Z,10.50
2018-05-27T06:49:10.869Z,10.63
2018-05-27T06:51:37.100Z,10.27
2018-05-27T06:54:03.322Z,9.93
2018-05-27T06:56:29.559Z,9.87
2018-05-27T06:58:55.770Z,10.43
2018-05-27T07:01:21.979Z,10.43
2018-05-27T07:03:48.210Z,10.47
2018-05-27T07:06:14.415Z,10.57
2018-05-27T07:08:41.397Z,10.80
2018-05-27T07:11:07.598Z,9.60
2018-05-27T07:13:33.834Z,10.13
2018-05-27T07:16:00.031Z,10.10
2018-05-27T07:18:26.956Z,9.83
2018-05-27T07:20:53.165Z,9.53
2018-05-27T07:23:19.374Z,10.43
2018-05-27T07:25:45.599Z,9.60
2018-05-27T07:28:11.824Z,9.57
2018-05-27T07:30:38.873Z,10.20
2018-05-27T07:33:05.073Z,9.40
2018-05-27T07:35:32.107Z,9.33
2018-05-27T07:37:59.043Z,9.70
2018-05-27T07:40:25.259Z,8.80
2018-05-27T07:42:51.485Z,9.87
2018-05-27T07:45:17.693Z,9.27
2018-05-27T07:47:43.915Z,8.27
2018-05-27T07:50:10.122Z,8.27
2018-05-27T07:52:36.362Z,8.53
2018-05-27T07:55:02.605Z,8.83
2018-05-27T07:57:28.856Z,8.63
2018-05-27T07:59:55.070Z,8.40
2018-05-27T08:02:21.327Z,8.90
2018-05-27T08:04:48.262Z,9.30
2018-05-27T08:07:14.488Z,8.73
2018-05-27T08:09:40.691Z,8.33
2018-05-27T08:12:06.908Z,7.30
2018-05-27T08:14:33.201Z,8.27
2018-05-27T08:16:59.406Z,8.83
2018-05-27T08:19:26.387Z,8.63
2018-05-27T08:21:52.582Z,8.18
2018-05-27T08:24:18.803Z,8.02
2018-05-27T08:26:45.010Z,8.55
2018-05-27T08:29:11.337Z,7.90
2018-05-27T08:31:37.590Z,8.52
2018-05-27T08:34:03.860Z,7.87
2018-05-27T08:36:30.086Z,7.35
2018-05-27T08:38:56.302Z,7.18
2018-05-27T08:41:22.579Z,7.75
2018-05-27T08:43:48.810Z,8.02
2018-05-27T08:46:15.051Z,7.37
2018-05-27T08:48:41.245Z,7.40
2018-05-27T08:51:07.470Z,7.45
2018-05-27T08:53:33.691Z,7.20
2018-05-27T08:56:00.757Z,7.32
2018-05-27T08:58:26.983Z,7.05
2018-05-27T09:00:53.203Z,7.22
2018-05-27T09:03:19.447Z,7.75
2018-05-27T09:05:45.634Z,8.00
2018-05-27T09:08:11.894Z,7.28
2018-05-27T09:10:38.129Z,7.12
2018-05-27T09:13:04.370Z,7.22
2018-05-27T09:15:30.589Z,6.80
2018-05-27T09:17:56.834Z,7.60
2018-05-27T09:20:23.043Z,7.07
2018-05-27T09:22:49.294Z,7.15
2018-05-27T09:25:16.303Z,6.85
2018-05-27T09:27:42.605Z,7.22
2018-05-27T09:30:08.856Z,6.75
2018-05-27T09:32:35.089Z,7.03
2018-05-27T09:35:02.153Z,6.93
2018-05-27T09:37:28.385Z,6.62
2018-05-27T09:39:54.635Z,6.95
2018-05-27T09:42:21.621Z,7.07
2018-05-27T09:44:47.832Z,7.53
2018-05-27T09:47:14.063Z,7.53
2018-05-27T09:49:40.327Z,7.20
2018-05-27T09:52:06.623Z,7.32
2018-05-27T09:54:33.203Z,7.22
2018-05-27T09:56:59.450Z,6.87
2018-05-27T09:59:26.415Z,6.78
2018-05-27T10:01:52.637Z,6.95
2018-05-27T10:04:18.830Z,6.57
2018-05-27T10:06:45.078Z,6.87
2018-05-27T10:09:18.059Z,7.10
2018-05-27T10:11:45.607Z,6.68
2018-05-27T10:14:12.102Z,6.65
2018-05-27T10:16:39.195Z,7.30
2018-05-27T10:19:06.275Z,7.37
2018-05-27T10:21:32.582Z,7.00
2018-05-27T10:23:59.736Z,6.90
2018-05-27T10:26:26.758Z,6.55
2018-05-27T10:28:53.096Z,6.72
2018-05-27T10:31:20.136Z,6.37
2018-05-27T10:33:46.550Z,6.57
2018-05-27T10:36:13.069Z,6.50
2018-05-27T10:38:40.174Z,6.12
2018-05-27T10:41:07.222Z,6.22
2018-05-27T10:43:36.559Z,6.40
2018-05-27T10:46:02.889Z,6.53
2018-05-27T10:48:29.185Z,6.32
2018-05-27T10:50:55.522Z,5.97
2018-05-27T10:53:21.818Z,6.00
2018-05-27T10:55:48.144Z,5.30
2018-05-27T10:58:14.454Z,5.53
2018-05-27T11:00:40.836Z,5.45
2018-05-27T11:03:07.174Z,4.90
2018-05-27T11:05:33.512Z,5.22
2018-05-27T11:07:59.820Z,4.82
2018-05-27T11:10:26.852Z,5.30
2018-05-27T11:12:53.965Z,5.07
2018-05-27T11:15:20.264Z,5.40
2018-05-27T11:17:46.558Z,5.37
2018-05-27T11:20:13.676Z,5.93
2018-05-27T11:22:40.782Z,5.72
2018-05-27T11:25:07.080Z,5.32
2018-05-27T11:27:34.168Z,5.75
2018-05-27T11:30:00.547Z,6.20
2018-05-27T11:32:26.866Z,5.93
2018-05-27T11:34:53.175Z,5.37
2018-05-27T11:37:19.520Z,5.47
2018-05-27T11:39:45.860Z,5.70
2018-05-27T11:42:12.186Z,6.12
2018-05-27T11:44:38.494Z,5.85
2018-05-27T11:47:04.790Z,5.40
2018-05-27T11:49:31.099Z,5.30
2018-05-27T11:51:58.152Z,6.15
2018-05-27T11:54:25.259Z,6.12
2018-05-27T11:56:51.723Z,6.20
2018-05-27T11:59:18.767Z,6.25
2018-05-27T12:01:45.127Z,6.28
2018-05-27T12:04:12.127Z,6.40
2018-05-27T12:06:38.421Z,6.28
2018-05-27T12:09:04.863Z,5.72
2018-05-27T12:11:31.107Z,6.43
2018-05-27T12:13:57.522Z,5.55
2018-05-27T12:16:23.794Z,6.07
2018-05-27T12:18:50.821Z,6.18
2018-05-27T12:21:17.104Z,6.15
2018-05-27T12:23:43.432Z,7.30
2018-05-27T12:26:09.709Z,8.23
2018-05-27T12:28:36.005Z,16.60
2018-05-27T12:31:02.322Z,13.07
2018-05-27T12:33:28.604Z,13.17
2018-05-27T12:35:54.950Z,15.10
2018-05-27T12:38:21.292Z,13.03
2018-05-27T12:40:48.354Z,8.93
2018-05-27T12:43:14.723Z,10.40
2018-05-27T12:45:41.036Z,12.83
2018-05-27T12:48:07.350Z,11.03
2018-05-27T12:50:33.754Z,10.60
2018-05-27T12:53:00.859Z,15.70
2018-05-27T12:55:27.183Z,20.73
2018-05-27T12:57:53.455Z,13.47
2018-05-27T13:00:20.781Z,11.33
2018-05-27T13:02:47.226Z,14.30
2018-05-27T13:05:13.543Z,20.97
2018-05-27T13:07:39.936Z,19.37
2018-05-27T13:10:06.338Z,17.83
2018-05-27T13:12:33.346Z,17.77
2018-05-27T13:14:59.709Z,18.80
2018-05-27T13:17:26.811Z,18.33
2018-05-27T13:19:53.162Z,14.57
2018-05-27T13:22:19.502Z,12.77
2018-05-27T13:24:45.828Z,10.13
2018-05-27T13:27:12.181Z,10.63
2018-05-27T13:29:39.321Z,12.03
2018-05-27T13:32:06.735Z,12.40
2018-05-27T13:34:33.149Z,15.50
2018-05-27T13:36:59.636Z,16.13
2018-05-27T13:39:28.108Z,18.40
2018-05-27T13:41:56.168Z,20.57
2018-05-27T13:44:27.542Z,21.37
2018-05-27T13:46:53.890Z,25.20
2018-05-27T13:49:21.344Z,18.07
2018-05-27T13:51:52.894Z,20.03
2018-05-27T13:54:20.017Z,22.27
2018-05-27T13:56:46.343Z,12.53
2018-05-27T13:59:12.708Z,14.33
2018-05-27T14:01:39.806Z,11.10
2018-05-27T14:04:06.163Z,11.00
2018-05-27T14:06:32.561Z,11.93
2018-05-27T14:09:02.674Z,12.90
2018-05-27T14:11:28.987Z,10.90
2018-05-27T14:13:55.328Z,9.90
2018-05-27T14:16:21.688Z,8.10
2018-05-27T14:18:48.027Z,6.30
2018-05-27T14:21:14.400Z,5.70
2018-05-27T14:23:40.707Z,6.17
2018-05-27T14:26:07.096Z,6.13
2018-05-27T14:28:34.411Z,5.70
2018-05-27T14:31:00.862Z,5.13
2018-05-27T14:33:27.218Z,5.30
2018-05-27T14:35:53.582Z,4.57
2018-05-27T14:38:20.820Z,4.97
2018-05-27T14:40:47.163Z,5.00
2018-05-27T14:43:14.269Z,4.90
2018-05-27T14:45:40.801Z,4.40
2018-05-27T14:48:07.170Z,4.50
2018-05-27T14:50:33.656Z,4.97
2018-05-27T14:52:59.926Z,4.53
2018-05-27T14:55:26.419Z,5.00
2018-05-27T14:57:52.923Z,4.67
2018-05-27T15:00:19.322Z,4.30
2018-05-27T15:02:45.628Z,5.07
2018-05-27T15:05:11.928Z,5.43
2018-05-27T15:07:38.328Z,5.43
2018-05-27T15:10:04.755Z,5.00
2018-05-27T15:12:31.072Z,5.17
2018-05-27T15:14:58.255Z,5.63
2018-05-27T15:17:24.612Z,5.80
2018-05-27T15:19:50.948Z,5.17
2018-05-27T15:22:17.298Z,5.40
2018-05-27T15:24:43.626Z,5.70
2018-05-27T15:27:10.003Z,5.67
2018-05-27T15:29:37.084Z,6.93
2018-05-27T15:32:03.675Z,8.77
2018-05-27T15:34:30.104Z,7.40
2018-05-27T15:36:56.525Z,10.37
2018-05-27T15:39:22.896Z,11.40
2018-05-27T15:41:49.284Z,11.83
2018-05-27T15:44:15.719Z,13.63
2018-05-27T15:46:42.085Z,16.03
2018-05-27T15:49:09.108Z,19.63
2018-05-27T15:51:35.423Z,20.83
2018-05-27T15:54:01.764Z,17.83
2018-05-27T15:56:28.107Z,19.03
2018-05-27T15:58:55.184Z,21.23
2018-05-27T16:01:21.546Z,19.03
2018-05-27T16:03:47.908Z,17.13
2018-05-27T16:06:14.328Z,16.17
2018-05-27T16:08:40.702Z,13.67
2018-05-27T16:11:07.116Z,15.13
2018-05-27T16:13:33.801Z,16.43
2018-05-27T16:16:00.220Z,19.03
2018-05-27T16:18:26.656Z,19.57
2018-05-27T16:20:52.954Z,15.97
2018-05-27T16:23:20.116Z,16.03
2018-05-27T16:25:46.993Z,17.47
2018-05-27T16:28:13.379Z,16.20
2018-05-27T16:30:39.745Z,15.37
2018-05-27T16:33:06.143Z,15.30
2018-05-27T16:35:33.183Z,12.67
2018-05-27T16:38:00.277Z,12.77
2018-05-27T16:40:26.683Z,11.57
2018-05-27T16:42:53.813Z,12.33
2018-05-27T16:45:20.128Z,11.10
2018-05-27T16:47:47.186Z,10.00
2018-05-27T16:50:14.331Z,7.73
2018-05-27T16:52:41.460Z,6.73
2018-05-27T16:55:07.874Z,10.20
2018-05-27T16:57:34.277Z,8.27
2018-05-27T17:00:00.618Z,7.50
2018-05-27T17:02:26.934Z,8.17
2018-05-27T17:04:53.246Z,8.00
2018-05-27T17:07:19.585Z,9.13
2018-05-27T17:09:45.995Z,7.73
2018-05-27T17:12:13.098Z,7.63
2018-05-27T17:14:39.444Z,10.40
2018-05-27T17:17:05.846Z,8.07
2018-05-27T17:19:32.198Z,9.23
2018-05-27T17:21:58.496Z,9.47
2018-05-27T17:24:24.793Z,8.00
2018-05-27T17:26:51.882Z,8.80
2018-05-27T17:29:18.247Z,9.93
2018-05-27T17:31:44.572Z,10.43
2018-05-27T17:34:10.900Z,9.83
2018-05-27T17:36:37.309Z,8.00
2018-05-27T17:39:03.648Z,6.70
2018-05-27T17:41:29.946Z,6.10
2018-05-27T17:43:56.309Z,6.00
2018-05-27T17:46:22.704Z,5.50
2018-05-27T17:48:49.064Z,6.53
2018-05-27T17:51:15.403Z,5.13
2018-05-27T17:53:41.763Z,5.30
2018-05-27T17:56:08.129Z,6.33
2018-05-27T17:58:34.487Z,5.47
2018-05-27T18:01:01.810Z,4.80
2018-05-27T18:03:28.145Z,5.60
2018-05-27T18:05:54.470Z,5.37
2018-05-27T18:08:20.804Z,6.10
2018-05-27T18:10:47.135Z,5.30
2018-05-27T18:13:13.450Z,6.27
2018-05-27T18:15:40.605Z,6.20
2018-05-27T18:18:07.806Z,7.47
2018-05-27T18:20:37.785Z,5.33
2018-05-27T18:23:04.107Z,6.20
2018-05-27T18:25:30.438Z,7.50
2018-05-27T18:27:56.789Z,7.70
2018-05-27T18:30:23.126Z,5.73
2018-05-27T18:32:49.490Z,6.00
2018-05-27T18:35:15.780Z,6.13
2018-05-27T18:37:42.919Z,5.93
2018-05-27T18:40:09.274Z,6.00
2018-05-27T18:42:36.334Z,5.80
2018-05-27T18:45:02.762Z,7.00
2018-05-27T18:47:29.147Z,5.87
2018-05-27T18:49:55.508Z,6.10
2018-05-27T18:52:21.941Z,6.70
2018-05-27T18:54:48.306Z,6.50
2018-05-27T18:57:15.399Z,7.40
2018-05-27T18:59:44.849Z,6.97
2018-05-27T19:02:11.334Z,6.90
2018-05-27T19:04:37.683Z,7.10
2018-05-27T19:07:04.175Z,6.83
2018-05-27T19:09:31.273Z,8.40
2018-05-27T19:11:59.021Z,8.20
2018-05-27T19:14:26.439Z,8.37
2018-05-27T19:16:53.703Z,8.80
2018-05-27T19:19:20.091Z,8.47
2018-05-27T19:21:46.434Z,8.87
2018-05-27T19:24:12.757Z,9.33
2018-05-27T19:26:39.088Z,9.53
2018-05-27T19:29:05.431Z,9.27
2018-05-27T19:31:32.555Z,8.80
2018-05-27T19:33:58.919Z,9.30
2018-05-27T19:36:25.994Z,9.60
2018-05-27T19:38:52.602Z,9.50
2018-05-27T19:41:18.993Z,9.60
2018-05-27T19:43:45.321Z,8.50
2018-05-27T19:46:11.639Z,8.80
2018-05-27T19:48:37.982Z,9.40
2018-05-27T19:51:04.296Z,9.83
2018-05-27T19:53:30.838Z,10.10
2018-05-27T19:55:57.187Z,10.70
2018-05-27T19:58:23.710Z,9.47
2018-05-27T20:00:50.122Z,9.83
2018-05-27T20:03:16.485Z,9.23
2018-05-27T20:05:42.787Z,10.43
2018-05-27T20:08:09.214Z,10.33
2018-05-27T20:10:35.643Z,10.23
2018-05-27T20:13:02.105Z,10.57
2018-05-27T20:15:28.448Z,10.77
2018-05-27T20:17:54.887Z,11.00
2018-05-27T20:20:21.385Z,11.13
2018-05-27T20:22:47.734Z,11.93
2018-05-27T20:25:14.250Z,11.87
2018-05-27T20:27:40.585Z,12.10
2018-05-27T20:30:06.910Z,11.97
2018-05-27T20:32:33.282Z,12.53
2018-05-27T20:35:00.345Z,12.13
2018-05-27T20:37:27.436Z,11.10
2018-05-27T20:39:53.899Z,11.13
2018-05-27T20:42:20.224Z,10.90
2018-05-27T20:44:46.577Z,10.33
2018-05-27T20:47:12.925Z,10.07
2018-05-27T20:49:39.982Z,11.00
2018-05-27T20:52:06.354Z,10.67
2018-05-27T20:54:32.729Z,11.20
2018-05-27T20:56:59.068Z,12.27
2018-05-27T20:59:25.446Z,12.37
2018-05-27T21:01:51.888Z,11.47
2018-05-27T21:04:18.210Z,11.17
2018-05-27T21:06:44.518Z,11.60
2018-05-27T21:09:10.883Z,10.27
2018-05-27T21:11:37.268Z,9.80
2018-05-27T21:14:03.591Z,11.63
2018-05-27T21:16:29.963Z,11.70
2018-05-27T21:18:56.294Z,11.73
2018-05-27T21:21:23.608Z,10.63
2018-05-27T21:23:49.959Z,11.10
2018-05-27T21:26:16.332Z,10.90
2018-05-27T21:28:46.454Z,9.90
2018-05-27T21:31:12.821Z,9.57
2018-05-27T21:33:39.774Z,9.37
2018-05-27T21:36:06.078Z,9.47
2018-05-27T21:38:32.457Z,9.37
2018-05-27T21:40:58.786Z,9.70
2018-05-27T21:43:25.116Z,9.90
2018-05-27T21:45:51.413Z,9.87
2018-05-27T21:48:17.937Z,11.10
2018-05-27T21:50:44.380Z,9.83
2018-05-27T21:53:10.681Z,9.83
2018-05-27T21:55:37.797Z,10.43
2018-05-27T21:58:04.183Z,10.80
2018-05-27T22:00:30.615Z,10.77
2018-05-27T22:02:57.046Z,11.10
2018-05-27T22:05:23.964Z,12.67
2018-05-27T22:07:51.153Z,11.00
2018-05-27T22:10:18.322Z,11.90
2018-05-27T22:12:44.736Z,11.63
2018-05-27T22:15:11.044Z,10.83
2018-05-27T22:17:37.391Z,11.83
2018-05-27T22:20:03.774Z,11.77
2018-05-27T22:22:30.099Z,13.07
2018-05-27T22:24:56.632Z,13.13
2018-05-27T22:27:22.992Z,13.90
2018-05-27T22:29:50.101Z,13.43
2018-05-27T22:32:16.468Z,12.73
2018-05-27T22:34:48.551Z,14.87
2018-05-27T22:37:14.881Z,13.83
2018-05-27T22:39:41.226Z,13.23
2018-05-27T22:42:07.615Z,13.77
2018-05-27T22:44:34.659Z,14.23
2018-05-27T22:47:04.368Z,14.37
2018-05-27T22:49:31.659Z,14.00
2018-05-27T22:52:13.008Z,14.63
2018-05-27T22:54:40.103Z,14.07
2018-05-27T22:57:06.472Z,14.67
2018-05-27T22:59:33.511Z,14.93
2018-05-27T23:01:59.879Z,15.07
2018-05-27T23:04:26.877Z,16.00
2018-05-27T23:06:53.244Z,15.73
2018-05-27T23:09:20.266Z,16.60
2018-05-27T23:11:46.599Z,17.33
2018-05-27T23:14:12.967Z,15.97
2018-05-27T23:16:40.048Z,17.47
2018-05-27T23:19:06.422Z,16.77
2018-05-27T23:21:32.739Z,16.67
2018-05-27T23:23:59.087Z,16.93
2018-05-27T23:26:26.223Z,18.57
2018-05-27T23:28:52.534Z,17.90
2018-05-27T23:31:18.865Z,17.50
2018-05-27T23:33:45.168Z,18.00
2018-05-27T23:36:11.487Z,17.93
2018-05-27T23:38:38.488Z,19.10
2018-05-27T23:41:04.778Z,18.70
2018-05-27T23:43:31.103Z,18.67
2018-05-27T23:45:57.397Z,20.53
2018-05-27T23:48:24.446Z,20.87
2018-05-27T23:50:51.504Z,20.43
2018-05-27T23:53:17.918Z,22.20
2018-05-27T23:55:45.127Z,22.07
2018-05-27T23:58:11.504Z,22.93
